Salten — LMFM — position and weather

sailwx.info

Track history (hours):
 
Tides and Currents Weather Stations Pressure Air Temp Water Temp Dewpoint Dewpoint Depression Visibility Wind Speed Wind Dir Waves Ship Positions

Salten

Last reported at 2018-Feb-21 10:30 UTC. Time now 2018-Feb-21 10:55 UTC.
Position N 67°17' E 014°22'.

Length 41 m; draft 2 m.

Type: High speed craft. MMSI: 259387000.

Date/timePositionNaut miles runAvg speedWind from/ knotsBaromVisibWave heightAir tempDewpointWater temp
2018-Feb-21 10:30N 67°17' E 014°22'0 0.0
2018-Feb-21 10:00N 67°17' E 014°22'1 1.3
2018-Feb-21 09:30N 67°17' E 014°24'1 1.2
2018-Feb-21 09:00N 67°17' E 014°22'15 1.0
2018-Feb-20 17:54N 67°31' E 014°39'1231.8
2018-Feb-20 17:30N 67°19' E 014°25'3 4.8
2018-Feb-20 16:59N 67°17' E 014°22'1 1.4
2018-Feb-20 16:30N 67°18' E 014°22'1 1.2
2018-Feb-20 15:59N 67°17' E 014°22'0 0.0
2018-Feb-20 15:29N 67°17' E 014°22'0 0.0
2018-Feb-20 14:59N 67°17' E 014°22'0 0.0
2018-Feb-20 14:29N 67°17' E 014°22'0 0.0
2018-Feb-20 13:59N 67°17' E 014°22'0 0.0
2018-Feb-20 13:29N 67°17' E 014°22'0 0.0
2018-Feb-20 12:59N 67°17' E 014°22'0 0.0
2018-Feb-20 12:29N 67°17' E 014°22'0 0.0
2018-Feb-20 11:59N 67°17' E 014°22'0 0.8
2018-Feb-20 11:28N 67°17' E 014°23'0 0.1
2018-Feb-20 11:00N 67°17' E 014°23'612.9
2018-Feb-20 10:30N 67°13' E 014°11'1324.8
2018-Feb-20 09:59N 67°03' E 013°49'3013.3
2018-Feb-20 07:43N 66°39' E 013°03'419.2
2018-Feb-20 07:30N 66°35' E 012°59'816.6
2018-Feb-20 07:01N 66°28' E 012°52'10 0.9
2018-Feb-19 19:37N 66°17' E 012°54'627.3
2018-Feb-19 19:24N 66°23' E 012°48'3712.4
2018-Feb-19 16:24N 66°56' E 013°28'1124.2
2018-Feb-19 15:57N 67°03' E 013°50'1228.1
2018-Feb-19 15:30N 67°13' E 014°10'711.6
2018-Feb-19 14:57N 67°17' E 014°22'1 1.5
2018-Feb-19 14:30N 67°17' E 014°24'1 1.2
2018-Feb-19 13:59N 67°17' E 014°22'0 0.0
2018-Feb-19 13:29N 67°17' E 014°22'0 0.0
2018-Feb-19 12:59N 67°17' E 014°22'0 0.0
2018-Feb-19 12:29N 67°17' E 014°22'0 0.0
2018-Feb-19 11:59N 67°17' E 014°22'0 0.0
2018-Feb-19 11:29N 67°17' E 014°22'0 0.0
2018-Feb-19 10:59N 67°17' E 014°22'0 0.0
2018-Feb-19 10:29N 67°17' E 014°22'0 0.0
2018-Feb-19 09:59N 67°17' E 014°22'0 0.0
2018-Feb-19 09:29N 67°17' E 014°22'0 0.0
2018-Feb-19 08:59N 67°17' E 014°22'0 0.0
2018-Feb-19 08:29N 67°17' E 014°22'2 4.6
2018-Feb-19 08:00N 67°19' E 014°19'2 4.7
2018-Feb-19 07:30N 67°17' E 014°24'0 0.9
2018-Feb-19 07:00N 67°17' E 014°23'0 0.6
2018-Feb-19 06:30N 67°17' E 014°22'0 0.0
2018-Feb-19 06:00N 67°17' E 014°22'0 0.0
2018-Feb-19 05:30N 67°17' E 014°22'0 0.0
2018-Feb-19 05:00N 67°17' E 014°22'0 0.0
2018-Feb-19 04:30N 67°17' E 014°22'0 0.0
2018-Feb-19 04:00N 67°17' E 014°22'0 0.0
2018-Feb-19 03:30N 67°17' E 014°22'0 0.0
2018-Feb-19 03:00N 67°17' E 014°22'0 0.0
2018-Feb-19 02:30N 67°17' E 014°22'0 0.0
2018-Feb-19 02:00N 67°17' E 014°22'0 0.0
2018-Feb-19 01:30N 67°17' E 014°22'0 0.0
2018-Feb-19 01:00N 67°17' E 014°22'0 0.0
2018-Feb-19 00:30N 67°17' E 014°22'0 0.0
2018-Feb-19 00:00N 67°17' E 014°22'0 0.0
2018-Feb-18 23:30N 67°17' E 014°22'0 0.0
2018-Feb-18 23:00N 67°17' E 014°22'0 0.0
2018-Feb-18 22:30N 67°17' E 014°22'0 0.0
2018-Feb-18 22:00N 67°17' E 014°22'0 0.0
2018-Feb-18 21:30N 67°17' E 014°22'0 0.0
2018-Feb-18 21:00N 67°17' E 014°22'0 0.0
2018-Feb-18 20:30N 67°17' E 014°22'0 0.0
2018-Feb-18 20:00N 67°17' E 014°22'0 0.0
2018-Feb-18 19:30N 67°17' E 014°22'0 0.0
2018-Feb-18 19:00N 67°17' E 014°22'0 0.0
2018-Feb-18 18:30N 67°17' E 014°22'0 0.0
2018-Feb-18 18:00N 67°17' E 014°22'0 0.0
2018-Feb-18 17:30N 67°17' E 014°22'0 0.0
2018-Feb-18 17:00N 67°17' E 014°22'0 0.0
2018-Feb-18 16:30N 67°17' E 014°22'0 0.0
2018-Feb-18 16:00N 67°17' E 014°22'0 0.0
2018-Feb-18 15:30N 67°17' E 014°22'0 0.0
2018-Feb-18 15:00N 67°17' E 014°22'0 0.0
2018-Feb-18 14:30N 67°17' E 014°22'0 0.0
2018-Feb-18 14:00N 67°17' E 014°22'0 0.0
2018-Feb-18 13:30N 67°17' E 014°22'0 0.0
2018-Feb-18 13:00N 67°17' E 014°22'0 0.0
2018-Feb-18 12:30N 67°17' E 014°22'0 0.0
2018-Feb-18 12:00N 67°17' E 014°22'0 0.0
2018-Feb-18 11:30N 67°17' E 014°22'0 0.0
2018-Feb-18 11:00N 67°17' E 014°22'0 0.0
2018-Feb-18 10:30N 67°17' E 014°22'0 0.0
2018-Feb-18 10:00N 67°17' E 014°22'0 0.0
2018-Feb-18 09:30N 67°17' E 014°22'0 0.0
2018-Feb-18 09:00N 67°17' E 014°22'0 0.0
2018-Feb-18 08:30N 67°17' E 014°22'0 0.0
2018-Feb-18 07:57N 67°17' E 014°22'0 0.0
2018-Feb-18 07:30N 67°17' E 014°22'0 0.0
2018-Feb-18 07:00N 67°17' E 014°22'0 0.0
2018-Feb-18 06:30N 67°17' E 014°22'0 0.0
2018-Feb-18 06:00N 67°17' E 014°22'0 0.0
2018-Feb-18 05:30N 67°17' E 014°22'0 0.0
2018-Feb-18 05:00N 67°17' E 014°22'0 0.0
2018-Feb-18 04:30N 67°17' E 014°22'0 0.0
2018-Feb-18 04:00N 67°17' E 014°22'0 0.0
2018-Feb-18 03:30N 67°17' E 014°22'0 0.0
2018-Feb-18 03:00N 67°17' E 014°22'0 0.0
2018-Feb-18 02:30N 67°17' E 014°22'0 0.0
2018-Feb-18 02:00N 67°17' E 014°22'0 0.0
2018-Feb-18 01:30N 67°17' E 014°22'0 0.0
2018-Feb-18 01:00N 67°17' E 014°22'0 0.0
2018-Feb-18 00:30N 67°17' E 014°22'0 0.0
2018-Feb-18 00:00N 67°17' E 014°22'0 0.0
2018-Feb-17 23:30N 67°17' E 014°22'0 0.0
2018-Feb-17 23:00N 67°17' E 014°22'0 0.0
2018-Feb-17 22:30N 67°17' E 014°22'0 0.0
2018-Feb-17 22:00N 67°17' E 014°22'0 0.0
2018-Feb-17 21:30N 67°17' E 014°22'0 0.0
2018-Feb-17 21:00N 67°17' E 014°22'0 0.0
2018-Feb-17 20:30N 67°17' E 014°22'0 0.0
2018-Feb-17 20:00N 67°17' E 014°22'0 0.0
2018-Feb-17 19:30N 67°17' E 014°22'0 0.0
2018-Feb-17 19:00N 67°17' E 014°22'0 0.0
2018-Feb-17 18:30N 67°17' E 014°22'0 0.0
2018-Feb-17 18:00N 67°17' E 014°22'0 0.0
2018-Feb-17 17:30N 67°17' E 014°22'0 0.0
2018-Feb-17 17:00N 67°17' E 014°22'0 0.0
2018-Feb-17 16:30N 67°17' E 014°22'0 0.0
2018-Feb-17 16:00N 67°17' E 014°22'0 0.0
2018-Feb-17 15:30N 67°17' E 014°22'0 0.0
2018-Feb-17 15:00N 67°17' E 014°22'0 0.0
2018-Feb-17 14:30N 67°17' E 014°22'0 0.0
2018-Feb-17 14:00N 67°17' E 014°22'0 0.0
2018-Feb-17 13:30N 67°17' E 014°22'0 0.0
2018-Feb-17 13:00N 67°17' E 014°22'0 0.0
2018-Feb-17 12:30N 67°17' E 014°22'0 0.0
2018-Feb-17 12:00N 67°17' E 014°22'0 0.0
2018-Feb-17 11:30N 67°17' E 014°22'0 0.0
2018-Feb-17 11:00N 67°17' E 014°22'0 0.0
2018-Feb-17 10:30N 67°17' E 014°22'0 0.0
2018-Feb-17 10:00N 67°17' E 014°22'0 0.0
2018-Feb-17 09:30N 67°17' E 014°22'0 0.0
2018-Feb-17 09:00N 67°17' E 014°22'0 0.0
2018-Feb-17 08:30N 67°17' E 014°22'0 0.0
2018-Feb-17 08:00N 67°17' E 014°22'0 0.0
2018-Feb-17 07:30N 67°17' E 014°22'0 0.0
2018-Feb-17 07:00N 67°17' E 014°22'0 0.0
2018-Feb-17 06:30N 67°17' E 014°22'0 0.0
2018-Feb-17 06:00N 67°17' E 014°22'0 0.0
2018-Feb-17 05:30N 67°17' E 014°22'0 0.0
2018-Feb-17 05:00N 67°17' E 014°22'0 0.0
2018-Feb-17 04:30N 67°17' E 014°22'0 0.0
2018-Feb-17 04:00N 67°17' E 014°22'0 0.0
2018-Feb-17 03:30N 67°17' E 014°22'0 0.0
2018-Feb-17 03:00N 67°17' E 014°22'0 0.0
2018-Feb-17 02:30N 67°17' E 014°22'0 0.0
2018-Feb-17 02:00N 67°17' E 014°22'0 0.0
2018-Feb-17 01:30N 67°17' E 014°22'0 0.0
2018-Feb-17 01:00N 67°17' E 014°22'0 0.0
2018-Feb-17 00:30N 67°17' E 014°22'0 0.0
2018-Feb-17 00:00N 67°17' E 014°22'0 0.0
2018-Feb-16 23:30N 67°17' E 014°22'0 0.0
2018-Feb-16 23:00N 67°17' E 014°22'0 0.0
2018-Feb-16 22:30N 67°17' E 014°22'0 0.0
2018-Feb-16 22:00N 67°17' E 014°22'0 0.0
2018-Feb-16 21:30N 67°17' E 014°22'0 0.0
2018-Feb-16 21:00N 67°17' E 014°22'0 0.0
2018-Feb-16 20:30N 67°17' E 014°22'0 0.0
2018-Feb-16 20:00N 67°17' E 014°22'0 0.0
2018-Feb-16 19:30N 67°17' E 014°22'0 0.0
2018-Feb-16 19:00N 67°17' E 014°22'0 0.0
2018-Feb-16 18:30N 67°17' E 014°22'0 0.0
2018-Feb-16 18:00N 67°17' E 014°22'0 0.0
2018-Feb-16 17:30N 67°17' E 014°22'0 0.0
2018-Feb-16 17:00N 67°17' E 014°22'0 0.0
2018-Feb-16 16:24N 67°17' E 014°22'0 0.0
2018-Feb-16 16:00N 67°17' E 014°22'0 0.0
2018-Feb-16 15:30N 67°17' E 014°22'0 0.0
2018-Feb-16 15:00N 67°17' E 014°22'0 0.0
2018-Feb-16 14:30N 67°17' E 014°22'0 0.0
2018-Feb-16 14:00N 67°17' E 014°22'0 0.0
2018-Feb-16 13:30N 67°17' E 014°22'0 0.0
2018-Feb-16 13:00N 67°17' E 014°22'0 0.0
2018-Feb-16 12:30N 67°17' E 014°22'0 0.0
2018-Feb-16 12:00N 67°17' E 014°22'0 0.0
2018-Feb-16 11:30N 67°17' E 014°22'0 0.0
2018-Feb-16 11:00N 67°17' E 014°22'0 0.0
2018-Feb-16 10:30N 67°17' E 014°22'0 0.0
2018-Feb-16 10:00N 67°17' E 014°22'0 0.0
2018-Feb-16 09:30N 67°17' E 014°22'0 0.0
2018-Feb-16 09:00N 67°17' E 014°22'0 0.0
2018-Feb-16 08:30N 67°17' E 014°22'0 0.0
2018-Feb-16 08:00N 67°17' E 014°22'0 0.0
2018-Feb-16 07:30N 67°17' E 014°22'0 0.0
2018-Feb-16 07:00N 67°17' E 014°22'0 0.0
2018-Feb-16 06:30N 67°17' E 014°22'0 0.0
2018-Feb-16 06:00N 67°17' E 014°22'0 0.0
2018-Feb-16 05:30N 67°17' E 014°22'0 0.0
2018-Feb-16 05:00N 67°17' E 014°22'0 0.0
2018-Feb-16 04:30N 67°17' E 014°22'0 0.0
2018-Feb-16 04:00N 67°17' E 014°22'0 0.0
2018-Feb-16 03:30N 67°17' E 014°22'0 0.0
2018-Feb-16 03:00N 67°17' E 014°22'0 0.0
2018-Feb-16 02:30N 67°17' E 014°22'0 0.0
2018-Feb-16 02:00N 67°17' E 014°22'0 0.0
2018-Feb-16 01:30N 67°17' E 014°22'0 0.0
2018-Feb-16 01:00N 67°17' E 014°22'0 0.0
2018-Feb-16 00:30N 67°17' E 014°22'0 0.0
2018-Feb-16 00:00N 67°17' E 014°22'0 0.0
2018-Feb-15 23:30N 67°17' E 014°22'0 0.0
2018-Feb-15 23:00N 67°17' E 014°22'0 0.0
2018-Feb-15 22:30N 67°17' E 014°22'0 0.0
2018-Feb-15 22:00N 67°17' E 014°22'0 0.0
2018-Feb-15 21:30N 67°17' E 014°22'0 0.0
2018-Feb-15 21:00N 67°17' E 014°22'0 0.0
2018-Feb-15 20:30N 67°17' E 014°22'0 0.0
2018-Feb-15 20:00N 67°17' E 014°22'0 0.0
2018-Feb-15 19:30N 67°17' E 014°22'0 0.0
2018-Feb-15 19:00N 67°17' E 014°22'0 0.0
2018-Feb-15 18:30N 67°17' E 014°22'0 0.0
2018-Feb-15 18:00N 67°17' E 014°22'0 0.0
2018-Feb-15 17:30N 67°17' E 014°22'0 0.0
2018-Feb-15 17:00N 67°17' E 014°22'0 0.0
2018-Feb-15 16:30N 67°17' E 014°22'0 0.0
2018-Feb-15 16:00N 67°17' E 014°22'0 0.0
2018-Feb-15 15:30N 67°17' E 014°22'0 0.0
2018-Feb-15 15:00N 67°17' E 014°22'0 0.0
2018-Feb-15 14:30N 67°17' E 014°22'0 0.0
2018-Feb-15 14:00N 67°17' E 014°22'0 0.0
2018-Feb-15 13:30N 67°17' E 014°22'0 0.0
2018-Feb-15 13:00N 67°17' E 014°22'0 0.0
2018-Feb-15 12:30N 67°17' E 014°22'0 0.0
2018-Feb-15 12:00N 67°17' E 014°22'0 0.0
2018-Feb-15 11:30N 67°17' E 014°22'0 0.0
2018-Feb-15 11:00N 67°17' E 014°22'0 0.0
2018-Feb-15 10:30N 67°17' E 014°22'0 0.0
2018-Feb-15 10:00N 67°17' E 014°22'0 0.0
2018-Feb-15 09:30N 67°17' E 014°22'0 0.0
2018-Feb-15 09:00N 67°17' E 014°22'0 0.0
2018-Feb-15 08:30N 67°17' E 014°22'0 0.0
2018-Feb-15 08:00N 67°17' E 014°22'0 0.0
2018-Feb-15 07:30N 67°17' E 014°22'0 0.0
2018-Feb-15 07:00N 67°17' E 014°22'0 0.0
2018-Feb-15 06:30N 67°17' E 014°22'0 0.0
2018-Feb-15 06:00N 67°17' E 014°22'0 0.0
2018-Feb-15 05:30N 67°17' E 014°22'0 0.0
2018-Feb-15 05:00N 67°17' E 014°22'0 0.0
2018-Feb-15 04:30N 67°17' E 014°22'0 0.0
2018-Feb-15 04:00N 67°17' E 014°22'0 0.0
2018-Feb-15 03:30N 67°17' E 014°22'0 0.0
2018-Feb-15 03:00N 67°17' E 014°22'0 0.0
2018-Feb-15 02:30N 67°17' E 014°22'0 0.0
2018-Feb-15 02:00N 67°17' E 014°22'0 0.0
2018-Feb-15 01:30N 67°17' E 014°22'0 0.0
2018-Feb-15 01:00N 67°17' E 014°22'0 0.0
2018-Feb-15 00:30N 67°17' E 014°22'0 0.0
2018-Feb-15 00:00N 67°17' E 014°22'0 0.0
2018-Feb-14 23:30N 67°17' E 014°22'0 0.0
2018-Feb-14 23:00N 67°17' E 014°22'0 0.0
2018-Feb-14 22:30N 67°17' E 014°22'0 0.0
2018-Feb-14 22:00N 67°17' E 014°22'0 0.0
2018-Feb-14 21:30N 67°17' E 014°22'0 0.0
2018-Feb-14 21:00N 67°17' E 014°22'0 0.0
2018-Feb-14 20:30N 67°17' E 014°22'0 0.0
2018-Feb-14 20:00N 67°17' E 014°22'0 0.0
2018-Feb-14 19:30N 67°17' E 014°22'0 0.0
2018-Feb-14 19:00N 67°17' E 014°22'0 0.0
2018-Feb-14 18:30N 67°17' E 014°22'0 0.0
2018-Feb-14 18:00N 67°17' E 014°22'0 0.0
2018-Feb-14 17:30N 67°17' E 014°22'0 0.0
2018-Feb-14 17:00N 67°17' E 014°22'0 0.0
2018-Feb-14 16:30N 67°17' E 014°22'0 0.0
2018-Feb-14 15:57N 67°17' E 014°22'0 0.0
2018-Feb-14 15:30N 67°17' E 014°22'0 0.0
2018-Feb-14 15:00N 67°17' E 014°22'0 0.0
2018-Feb-14 14:30N 67°17' E 014°22'0 0.0
2018-Feb-14 14:00N 67°17' E 014°22'0 0.0
2018-Feb-14 13:30N 67°17' E 014°22'0 0.0
2018-Feb-14 13:00N 67°17' E 014°22'0 0.0
2018-Feb-14 12:30N 67°17' E 014°22'0 0.0
2018-Feb-14 12:00N 67°17' E 014°22'0 0.0
2018-Feb-14 11:30N 67°17' E 014°22'0 0.0
2018-Feb-14 11:00N 67°17' E 014°22'0 0.0
2018-Feb-14 10:30N 67°17' E 014°22'0 0.0
2018-Feb-14 10:00N 67°17' E 014°22'0 0.0
2018-Feb-14 09:30N 67°17' E 014°22'0 0.0
2018-Feb-14 09:00N 67°17' E 014°22'0 0.0
2018-Feb-14 08:30N 67°17' E 014°22'0 0.0
2018-Feb-14 08:00N 67°17' E 014°22'0 0.0
2018-Feb-14 07:30N 67°17' E 014°22'0 0.0
2018-Feb-14 07:00N 67°17' E 014°22'0 0.0
2018-Feb-14 06:30N 67°17' E 014°22'0 0.0
2018-Feb-14 06:00N 67°17' E 014°22'0 0.0
2018-Feb-14 05:30N 67°17' E 014°22'0 0.0
2018-Feb-14 05:00N 67°17' E 014°22'0 0.0
2018-Feb-14 04:30N 67°17' E 014°22'0 0.0
2018-Feb-14 04:00N 67°17' E 014°22'0 0.0
2018-Feb-14 03:30N 67°17' E 014°22'0 0.0
2018-Feb-14 03:00N 67°17' E 014°22'0 0.0
2018-Feb-14 02:30N 67°17' E 014°22'0 0.0
2018-Feb-14 02:00N 67°17' E 014°22'0 0.0
2018-Feb-14 01:30N 67°17' E 014°22'0 0.0
2018-Feb-14 01:00N 67°17' E 014°22'0 0.0
2018-Feb-14 00:30N 67°17' E 014°22'0 0.0
2018-Feb-14 00:00N 67°17' E 014°22'0 0.0
2018-Feb-13 23:30N 67°17' E 014°22'0 0.0
2018-Feb-13 23:00N 67°17' E 014°22'0 0.0
2018-Feb-13 22:30N 67°17' E 014°22'0 0.0
2018-Feb-13 22:00N 67°17' E 014°22'0 0.0
2018-Feb-13 21:30N 67°17' E 014°22'0 0.0
2018-Feb-13 21:00N 67°17' E 014°22'0 0.0
2018-Feb-13 20:30N 67°17' E 014°22'0 0.0
2018-Feb-13 20:00N 67°17' E 014°22'0 0.0
2018-Feb-13 19:30N 67°17' E 014°22'0 0.0
2018-Feb-13 19:00N 67°17' E 014°22'0 0.0
2018-Feb-13 18:30N 67°17' E 014°22'0 0.0
2018-Feb-13 18:00N 67°17' E 014°22'0 0.0
2018-Feb-13 17:30N 67°17' E 014°22'0 0.0
2018-Feb-13 17:00N 67°17' E 014°22'0 0.0
2018-Feb-13 16:30N 67°17' E 014°22'0 0.0
2018-Feb-13 16:00N 67°17' E 014°22'0 0.0
2018-Feb-13 15:30N 67°17' E 014°22'0 0.0
2018-Feb-13 15:00N 67°17' E 014°22'0 0.0
2018-Feb-13 14:30N 67°17' E 014°22'0 0.0
2018-Feb-13 14:00N 67°17' E 014°22'0 0.0
2018-Feb-13 13:30N 67°17' E 014°22'0 0.0
2018-Feb-13 13:00N 67°17' E 014°22'0 0.0
2018-Feb-13 12:30N 67°17' E 014°22'0 0.0
2018-Feb-13 12:00N 67°17' E 014°22'0 0.0
2018-Feb-13 11:30N 67°17' E 014°22'0 0.0
2018-Feb-13 11:00N 67°17' E 014°22'0 0.0
2018-Feb-13 10:30N 67°17' E 014°22'0 0.0
2018-Feb-13 10:00N 67°17' E 014°22'0 0.0
2018-Feb-13 09:30N 67°17' E 014°22'0 0.0
2018-Feb-13 09:00N 67°17' E 014°22'0 0.0
2018-Feb-13 08:30N 67°17' E 014°22'0 0.0
2018-Feb-13 08:00N 67°17' E 014°22'0 0.0
2018-Feb-13 07:30N 67°17' E 014°22'0 0.0
2018-Feb-13 07:00N 67°17' E 014°22'0 0.0
2018-Feb-13 06:30N 67°17' E 014°22'0 0.0
2018-Feb-13 06:00N 67°17' E 014°22'0 0.0
2018-Feb-13 05:30N 67°17' E 014°22'0 0.0
2018-Feb-13 05:00N 67°17' E 014°22'0 0.0
2018-Feb-13 04:30N 67°17' E 014°22'0 0.0
2018-Feb-13 04:00N 67°17' E 014°22'0 0.0
2018-Feb-13 03:30N 67°17' E 014°22'0 0.0
2018-Feb-13 03:00N 67°17' E 014°22'0 0.0
2018-Feb-13 02:30N 67°17' E 014°22'0 0.0
2018-Feb-13 02:00N 67°17' E 014°22'0 0.0
2018-Feb-13 01:30N 67°17' E 014°22'0 0.0
2018-Feb-13 01:00N 67°17' E 014°22'0 0.0
2018-Feb-13 00:30N 67°17' E 014°22'0 0.0
2018-Feb-13 00:00N 67°17' E 014°22'0 0.0
2018-Feb-12 23:30N 67°17' E 014°22'0 0.0
2018-Feb-12 23:00N 67°17' E 014°22'0 0.0
2018-Feb-12 22:30N 67°17' E 014°22'0 0.0
2018-Feb-12 22:00N 67°17' E 014°22'0 0.0
2018-Feb-12 21:30N 67°17' E 014°22'0 0.0
2018-Feb-12 21:00N 67°17' E 014°22'0 0.0
2018-Feb-12 20:30N 67°17' E 014°22'0 0.0
2018-Feb-12 20:00N 67°17' E 014°22'0 0.0
2018-Feb-12 19:30N 67°17' E 014°22'0 0.0
2018-Feb-12 19:00N 67°17' E 014°22'0 0.0
2018-Feb-12 18:30N 67°17' E 014°22'0 0.0
2018-Feb-12 18:00N 67°17' E 014°22'0 0.0
2018-Feb-12 17:30N 67°17' E 014°22'0 0.0
2018-Feb-12 17:00N 67°17' E 014°22'0 0.0
2018-Feb-12 16:30N 67°17' E 014°22'0 0.0
2018-Feb-12 16:00N 67°17' E 014°22'0 0.0
2018-Feb-12 15:18N 67°17' E 014°22'0 0.0
2018-Feb-12 15:00N 67°17' E 014°22'0 0.0
2018-Feb-12 14:30N 67°17' E 014°22'0 0.0
2018-Feb-12 14:00N 67°17' E 014°22'0 0.0
2018-Feb-12 13:30N 67°17' E 014°22'0 0.0
2018-Feb-12 13:00N 67°17' E 014°22'0 0.0
2018-Feb-12 12:30N 67°17' E 014°22'0 0.0
2018-Feb-12 12:00N 67°17' E 014°22'0 0.0
2018-Feb-12 11:30N 67°17' E 014°22'0 0.0
2018-Feb-12 11:00N 67°17' E 014°22'0 0.5
2018-Feb-12 10:31N 67°17' E 014°22'1325.7
2018-Feb-12 10:01N 67°08' E 013°58'1326.7
2018-Feb-12 09:30N 66°59' E 013°34'2213.6
2018-Feb-12 07:51N 66°39' E 013°06'511.5
2018-Feb-12 07:27N 66°35' E 012°59'816.9
2018-Feb-12 06:57N 66°27' E 012°51'1621.5
2018-Feb-12 06:13N 66°12' E 013°00'824.8
2018-Feb-12 05:53N 66°07' E 012°46'0 0.0
2018-Feb-11 19:49N 66°06' E 012°45'822.2
2018-Feb-11 19:27N 66°12' E 013°00'0 0.1
2018-Feb-11 16:31N 66°12' E 013°00'824.6
2018-Feb-11 16:11N 66°20' E 012°53'419.4
2018-Feb-11 15:59N 66°24' E 012°49'816.8
2018-Feb-11 15:30N 66°31' E 013°00'913.5
2018-Feb-11 14:51N 66°39' E 013°03'614.7
2018-Feb-11 14:28N 66°43' E 013°14'1312.4
2018-Feb-11 13:24N 66°54' E 013°31'514.0
2018-Feb-11 13:00N 66°59' E 013°36'1224.5
2018-Feb-11 12:30N 67°08' E 013°58'1326.1
2018-Feb-11 12:00N 67°17' E 014°22'0 0.2
2018-Feb-11 11:30N 67°17' E 014°22'0 0.0
2018-Feb-11 11:01N 67°17' E 014°22'0 0.0
2018-Feb-11 10:30N 67°17' E 014°22'  
Track history (hours):
 
Tides and Currents Weather Stations Pressure Air Temp Water Temp Dewpoint Dewpoint Depression Visibility Wind Speed Wind Dir Waves Ship Positions

Salten

Last reported at 2018-Feb-21 10:30 UTC. Time now 2018-Feb-21 10:55 UTC.
Position N 67°17' E 014°22'.

Length 41 m; draft 2 m.

Type: High speed craft. MMSI: 259387000.

Date/timePositionNaut miles runAvg speedWind from/ knotsBaromVisibWave heightAir tempDewpointWater temp
2018-Feb-21 10:30N 67°17' E 014°22'0 0.0
2018-Feb-21 10:00N 67°17' E 014°22'1 1.3
2018-Feb-21 09:30N 67°17' E 014°24'1 1.2
2018-Feb-21 09:00N 67°17' E 014°22'15 1.0
2018-Feb-20 17:54N 67°31' E 014°39'1231.8
2018-Feb-20 17:30N 67°19' E 014°25'3 4.8
2018-Feb-20 16:59N 67°17' E 014°22'1 1.4
2018-Feb-20 16:30N 67°18' E 014°22'1 1.2
2018-Feb-20 15:59N 67°17' E 014°22'0 0.0
2018-Feb-20 15:29N 67°17' E 014°22'0 0.0
2018-Feb-20 14:59N 67°17' E 014°22'0 0.0
2018-Feb-20 14:29N 67°17' E 014°22'0 0.0
2018-Feb-20 13:59N 67°17' E 014°22'0 0.0
2018-Feb-20 13:29N 67°17' E 014°22'0 0.0
2018-Feb-20 12:59N 67°17' E 014°22'0 0.0
2018-Feb-20 12:29N 67°17' E 014°22'0 0.0
2018-Feb-20 11:59N 67°17' E 014°22'0 0.8
2018-Feb-20 11:28N 67°17' E 014°23'0 0.1
2018-Feb-20 11:00N 67°17' E 014°23'612.9
2018-Feb-20 10:30N 67°13' E 014°11'1324.8
2018-Feb-20 09:59N 67°03' E 013°49'3013.3
2018-Feb-20 07:43N 66°39' E 013°03'419.2
2018-Feb-20 07:30N 66°35' E 012°59'816.6
2018-Feb-20 07:01N 66°28' E 012°52'10 0.9
2018-Feb-19 19:37N 66°17' E 012°54'627.3
2018-Feb-19 19:24N 66°23' E 012°48'3712.4
2018-Feb-19 16:24N 66°56' E 013°28'1124.2
2018-Feb-19 15:57N 67°03' E 013°50'1228.1
2018-Feb-19 15:30N 67°13' E 014°10'711.6
2018-Feb-19 14:57N 67°17' E 014°22'1 1.5
2018-Feb-19 14:30N 67°17' E 014°24'1 1.2
2018-Feb-19 13:59N 67°17' E 014°22'0 0.0
2018-Feb-19 13:29N 67°17' E 014°22'0 0.0
2018-Feb-19 12:59N 67°17' E 014°22'0 0.0
2018-Feb-19 12:29N 67°17' E 014°22'0 0.0
2018-Feb-19 11:59N 67°17' E 014°22'0 0.0
2018-Feb-19 11:29N 67°17' E 014°22'0 0.0
2018-Feb-19 10:59N 67°17' E 014°22'0 0.0
2018-Feb-19 10:29N 67°17' E 014°22'0 0.0
2018-Feb-19 09:59N 67°17' E 014°22'0 0.0
2018-Feb-19 09:29N 67°17' E 014°22'0 0.0
2018-Feb-19 08:59N 67°17' E 014°22'0 0.0
2018-Feb-19 08:29N 67°17' E 014°22'2 4.6
2018-Feb-19 08:00N 67°19' E 014°19'2 4.7
2018-Feb-19 07:30N 67°17' E 014°24'0 0.9
2018-Feb-19 07:00N 67°17' E 014°23'0 0.6
2018-Feb-19 06:30N 67°17' E 014°22'0 0.0
2018-Feb-19 06:00N 67°17' E 014°22'0 0.0
2018-Feb-19 05:30N 67°17' E 014°22'0 0.0
2018-Feb-19 05:00N 67°17' E 014°22'0 0.0
2018-Feb-19 04:30N 67°17' E 014°22'0 0.0
2018-Feb-19 04:00N 67°17' E 014°22'0 0.0
2018-Feb-19 03:30N 67°17' E 014°22'0 0.0
2018-Feb-19 03:00N 67°17' E 014°22'0 0.0
2018-Feb-19 02:30N 67°17' E 014°22'0 0.0
2018-Feb-19 02:00N 67°17' E 014°22'0 0.0
2018-Feb-19 01:30N 67°17' E 014°22'0 0.0
2018-Feb-19 01:00N 67°17' E 014°22'0 0.0
2018-Feb-19 00:30N 67°17' E 014°22'0 0.0
2018-Feb-19 00:00N 67°17' E 014°22'0 0.0
2018-Feb-18 23:30N 67°17' E 014°22'0 0.0
2018-Feb-18 23:00N 67°17' E 014°22'0 0.0
2018-Feb-18 22:30N 67°17' E 014°22'0 0.0
2018-Feb-18 22:00N 67°17' E 014°22'0 0.0
2018-Feb-18 21:30N 67°17' E 014°22'0 0.0
2018-Feb-18 21:00N 67°17' E 014°22'0 0.0
2018-Feb-18 20:30N 67°17' E 014°22'0 0.0
2018-Feb-18 20:00N 67°17' E 014°22'0 0.0
2018-Feb-18 19:30N 67°17' E 014°22'0 0.0
2018-Feb-18 19:00N 67°17' E 014°22'0 0.0
2018-Feb-18 18:30N 67°17' E 014°22'0 0.0
2018-Feb-18 18:00N 67°17' E 014°22'0 0.0
2018-Feb-18 17:30N 67°17' E 014°22'0 0.0
2018-Feb-18 17:00N 67°17' E 014°22'0 0.0
2018-Feb-18 16:30N 67°17' E 014°22'0 0.0
2018-Feb-18 16:00N 67°17' E 014°22'0 0.0
2018-Feb-18 15:30N 67°17' E 014°22'0 0.0
2018-Feb-18 15:00N 67°17' E 014°22'0 0.0
2018-Feb-18 14:30N 67°17' E 014°22'0 0.0
2018-Feb-18 14:00N 67°17' E 014°22'0 0.0
2018-Feb-18 13:30N 67°17' E 014°22'0 0.0
2018-Feb-18 13:00N 67°17' E 014°22'0 0.0
2018-Feb-18 12:30N 67°17' E 014°22'0 0.0
2018-Feb-18 12:00N 67°17' E 014°22'0 0.0
2018-Feb-18 11:30N 67°17' E 014°22'0 0.0
2018-Feb-18 11:00N 67°17' E 014°22'0 0.0
2018-Feb-18 10:30N 67°17' E 014°22'0 0.0
2018-Feb-18 10:00N 67°17' E 014°22'0 0.0
2018-Feb-18 09:30N 67°17' E 014°22'0 0.0
2018-Feb-18 09:00N 67°17' E 014°22'0 0.0
2018-Feb-18 08:30N 67°17' E 014°22'0 0.0
2018-Feb-18 07:57N 67°17' E 014°22'0 0.0
2018-Feb-18 07:30N 67°17' E 014°22'0 0.0
2018-Feb-18 07:00N 67°17' E 014°22'0 0.0
2018-Feb-18 06:30N 67°17' E 014°22'0 0.0
2018-Feb-18 06:00N 67°17' E 014°22'0 0.0
2018-Feb-18 05:30N 67°17' E 014°22'0 0.0
2018-Feb-18 05:00N 67°17' E 014°22'0 0.0
2018-Feb-18 04:30N 67°17' E 014°22'0 0.0
2018-Feb-18 04:00N 67°17' E 014°22'0 0.0
2018-Feb-18 03:30N 67°17' E 014°22'0 0.0
2018-Feb-18 03:00N 67°17' E 014°22'0 0.0
2018-Feb-18 02:30N 67°17' E 014°22'0 0.0
2018-Feb-18 02:00N 67°17' E 014°22'0 0.0
2018-Feb-18 01:30N 67°17' E 014°22'0 0.0
2018-Feb-18 01:00N 67°17' E 014°22'0 0.0
2018-Feb-18 00:30N 67°17' E 014°22'0 0.0
2018-Feb-18 00:00N 67°17' E 014°22'0 0.0
2018-Feb-17 23:30N 67°17' E 014°22'0 0.0
2018-Feb-17 23:00N 67°17' E 014°22'0 0.0
2018-Feb-17 22:30N 67°17' E 014°22'0 0.0
2018-Feb-17 22:00N 67°17' E 014°22'0 0.0
2018-Feb-17 21:30N 67°17' E 014°22'0 0.0
2018-Feb-17 21:00N 67°17' E 014°22'0 0.0
2018-Feb-17 20:30N 67°17' E 014°22'0 0.0
2018-Feb-17 20:00N 67°17' E 014°22'0 0.0
2018-Feb-17 19:30N 67°17' E 014°22'0 0.0
2018-Feb-17 19:00N 67°17' E 014°22'0 0.0
2018-Feb-17 18:30N 67°17' E 014°22'0 0.0
2018-Feb-17 18:00N 67°17' E 014°22'0 0.0
2018-Feb-17 17:30N 67°17' E 014°22'0 0.0
2018-Feb-17 17:00N 67°17' E 014°22'0 0.0
2018-Feb-17 16:30N 67°17' E 014°22'0 0.0
2018-Feb-17 16:00N 67°17' E 014°22'0 0.0
2018-Feb-17 15:30N 67°17' E 014°22'0 0.0
2018-Feb-17 15:00N 67°17' E 014°22'0 0.0
2018-Feb-17 14:30N 67°17' E 014°22'0 0.0
2018-Feb-17 14:00N 67°17' E 014°22'0 0.0
2018-Feb-17 13:30N 67°17' E 014°22'0 0.0
2018-Feb-17 13:00N 67°17' E 014°22'0 0.0
2018-Feb-17 12:30N 67°17' E 014°22'0 0.0
2018-Feb-17 12:00N 67°17' E 014°22'0 0.0
2018-Feb-17 11:30N 67°17' E 014°22'0 0.0
2018-Feb-17 11:00N 67°17' E 014°22'0 0.0
2018-Feb-17 10:30N 67°17' E 014°22'0 0.0
2018-Feb-17 10:00N 67°17' E 014°22'0 0.0
2018-Feb-17 09:30N 67°17' E 014°22'0 0.0
2018-Feb-17 09:00N 67°17' E 014°22'0 0.0
2018-Feb-17 08:30N 67°17' E 014°22'0 0.0
2018-Feb-17 08:00N 67°17' E 014°22'0 0.0
2018-Feb-17 07:30N 67°17' E 014°22'0 0.0
2018-Feb-17 07:00N 67°17' E 014°22'0 0.0
2018-Feb-17 06:30N 67°17' E 014°22'0 0.0
2018-Feb-17 06:00N 67°17' E 014°22'0 0.0
2018-Feb-17 05:30N 67°17' E 014°22'0 0.0
2018-Feb-17 05:00N 67°17' E 014°22'0 0.0
2018-Feb-17 04:30N 67°17' E 014°22'0 0.0
2018-Feb-17 04:00N 67°17' E 014°22'0 0.0
2018-Feb-17 03:30N 67°17' E 014°22'0 0.0
2018-Feb-17 03:00N 67°17' E 014°22'0 0.0
2018-Feb-17 02:30N 67°17' E 014°22'0 0.0
2018-Feb-17 02:00N 67°17' E 014°22'0 0.0
2018-Feb-17 01:30N 67°17' E 014°22'0 0.0
2018-Feb-17 01:00N 67°17' E 014°22'0 0.0
2018-Feb-17 00:30N 67°17' E 014°22'0 0.0
2018-Feb-17 00:00N 67°17' E 014°22'0 0.0
2018-Feb-16 23:30N 67°17' E 014°22'0 0.0
2018-Feb-16 23:00N 67°17' E 014°22'0 0.0
2018-Feb-16 22:30N 67°17' E 014°22'0 0.0
2018-Feb-16 22:00N 67°17' E 014°22'0 0.0
2018-Feb-16 21:30N 67°17' E 014°22'0 0.0
2018-Feb-16 21:00N 67°17' E 014°22'0 0.0
2018-Feb-16 20:30N 67°17' E 014°22'0 0.0
2018-Feb-16 20:00N 67°17' E 014°22'0 0.0
2018-Feb-16 19:30N 67°17' E 014°22'0 0.0
2018-Feb-16 19:00N 67°17' E 014°22'0 0.0
2018-Feb-16 18:30N 67°17' E 014°22'0 0.0
2018-Feb-16 18:00N 67°17' E 014°22'0 0.0
2018-Feb-16 17:30N 67°17' E 014°22'0 0.0
2018-Feb-16 17:00N 67°17' E 014°22'0 0.0
2018-Feb-16 16:24N 67°17' E 014°22'0 0.0
2018-Feb-16 16:00N 67°17' E 014°22'0 0.0
2018-Feb-16 15:30N 67°17' E 014°22'0 0.0
2018-Feb-16 15:00N 67°17' E 014°22'0 0.0
2018-Feb-16 14:30N 67°17' E 014°22'0 0.0
2018-Feb-16 14:00N 67°17' E 014°22'0 0.0
2018-Feb-16 13:30N 67°17' E 014°22'0 0.0
2018-Feb-16 13:00N 67°17' E 014°22'0 0.0
2018-Feb-16 12:30N 67°17' E 014°22'0 0.0
2018-Feb-16 12:00N 67°17' E 014°22'0 0.0
2018-Feb-16 11:30N 67°17' E 014°22'0 0.0
2018-Feb-16 11:00N 67°17' E 014°22'0 0.0
2018-Feb-16 10:30N 67°17' E 014°22'0 0.0
2018-Feb-16 10:00N 67°17' E 014°22'0 0.0
2018-Feb-16 09:30N 67°17' E 014°22'0 0.0
2018-Feb-16 09:00N 67°17' E 014°22'0 0.0
2018-Feb-16 08:30N 67°17' E 014°22'0 0.0
2018-Feb-16 08:00N 67°17' E 014°22'0 0.0
2018-Feb-16 07:30N 67°17' E 014°22'0 0.0
2018-Feb-16 07:00N 67°17' E 014°22'0 0.0
2018-Feb-16 06:30N 67°17' E 014°22'0 0.0
2018-Feb-16 06:00N 67°17' E 014°22'0 0.0
2018-Feb-16 05:30N 67°17' E 014°22'0 0.0
2018-Feb-16 05:00N 67°17' E 014°22'0 0.0
2018-Feb-16 04:30N 67°17' E 014°22'0 0.0
2018-Feb-16 04:00N 67°17' E 014°22'0 0.0
2018-Feb-16 03:30N 67°17' E 014°22'0 0.0
2018-Feb-16 03:00N 67°17' E 014°22'0 0.0
2018-Feb-16 02:30N 67°17' E 014°22'0 0.0
2018-Feb-16 02:00N 67°17' E 014°22'0 0.0
2018-Feb-16 01:30N 67°17' E 014°22'0 0.0
2018-Feb-16 01:00N 67°17' E 014°22'0 0.0
2018-Feb-16 00:30N 67°17' E 014°22'0 0.0
2018-Feb-16 00:00N 67°17' E 014°22'0 0.0
2018-Feb-15 23:30N 67°17' E 014°22'0 0.0
2018-Feb-15 23:00N 67°17' E 014°22'0 0.0
2018-Feb-15 22:30N 67°17' E 014°22'0 0.0
2018-Feb-15 22:00N 67°17' E 014°22'0 0.0
2018-Feb-15 21:30N 67°17' E 014°22'0 0.0
2018-Feb-15 21:00N 67°17' E 014°22'0 0.0
2018-Feb-15 20:30N 67°17' E 014°22'0 0.0
2018-Feb-15 20:00N 67°17' E 014°22'0 0.0
2018-Feb-15 19:30N 67°17' E 014°22'0 0.0
2018-Feb-15 19:00N 67°17' E 014°22'0 0.0
2018-Feb-15 18:30N 67°17' E 014°22'0 0.0
2018-Feb-15 18:00N 67°17' E 014°22'0 0.0
2018-Feb-15 17:30N 67°17' E 014°22'0 0.0
2018-Feb-15 17:00N 67°17' E 014°22'0 0.0
2018-Feb-15 16:30N 67°17' E 014°22'0 0.0
2018-Feb-15 16:00N 67°17' E 014°22'0 0.0
2018-Feb-15 15:30N 67°17' E 014°22'0 0.0
2018-Feb-15 15:00N 67°17' E 014°22'0 0.0
2018-Feb-15 14:30N 67°17' E 014°22'0 0.0
2018-Feb-15 14:00N 67°17' E 014°22'0 0.0
2018-Feb-15 13:30N 67°17' E 014°22'0 0.0
2018-Feb-15 13:00N 67°17' E 014°22'0 0.0
2018-Feb-15 12:30N 67°17' E 014°22'0 0.0
2018-Feb-15 12:00N 67°17' E 014°22'0 0.0
2018-Feb-15 11:30N 67°17' E 014°22'0 0.0
2018-Feb-15 11:00N 67°17' E 014°22'0 0.0
2018-Feb-15 10:30N 67°17' E 014°22'0 0.0
2018-Feb-15 10:00N 67°17' E 014°22'0 0.0
2018-Feb-15 09:30N 67°17' E 014°22'0 0.0
2018-Feb-15 09:00N 67°17' E 014°22'0 0.0
2018-Feb-15 08:30N 67°17' E 014°22'0 0.0
2018-Feb-15 08:00N 67°17' E 014°22'0 0.0
2018-Feb-15 07:30N 67°17' E 014°22'0 0.0
2018-Feb-15 07:00N 67°17' E 014°22'0 0.0
2018-Feb-15 06:30N 67°17' E 014°22'0 0.0
2018-Feb-15 06:00N 67°17' E 014°22'0 0.0
2018-Feb-15 05:30N 67°17' E 014°22'0 0.0
2018-Feb-15 05:00N 67°17' E 014°22'0 0.0
2018-Feb-15 04:30N 67°17' E 014°22'0 0.0
2018-Feb-15 04:00N 67°17' E 014°22'0 0.0
2018-Feb-15 03:30N 67°17' E 014°22'0 0.0
2018-Feb-15 03:00N 67°17' E 014°22'0 0.0
2018-Feb-15 02:30N 67°17' E 014°22'0 0.0
2018-Feb-15 02:00N 67°17' E 014°22'0 0.0
2018-Feb-15 01:30N 67°17' E 014°22'0 0.0
2018-Feb-15 01:00N 67°17' E 014°22'0 0.0
2018-Feb-15 00:30N 67°17' E 014°22'0 0.0
2018-Feb-15 00:00N 67°17' E 014°22'0 0.0
2018-Feb-14 23:30N 67°17' E 014°22'0 0.0
2018-Feb-14 23:00N 67°17' E 014°22'0 0.0
2018-Feb-14 22:30N 67°17' E 014°22'0 0.0
2018-Feb-14 22:00N 67°17' E 014°22'0 0.0
2018-Feb-14 21:30N 67°17' E 014°22'0 0.0
2018-Feb-14 21:00N 67°17' E 014°22'0 0.0
2018-Feb-14 20:30N 67°17' E 014°22'0 0.0
2018-Feb-14 20:00N 67°17' E 014°22'0 0.0
2018-Feb-14 19:30N 67°17' E 014°22'0 0.0
2018-Feb-14 19:00N 67°17' E 014°22'0 0.0
2018-Feb-14 18:30N 67°17' E 014°22'0 0.0
2018-Feb-14 18:00N 67°17' E 014°22'0 0.0
2018-Feb-14 17:30N 67°17' E 014°22'0 0.0
2018-Feb-14 17:00N 67°17' E 014°22'0 0.0
2018-Feb-14 16:30N 67°17' E 014°22'0 0.0
2018-Feb-14 15:57N 67°17' E 014°22'0 0.0
2018-Feb-14 15:30N 67°17' E 014°22'0 0.0
2018-Feb-14 15:00N 67°17' E 014°22'0 0.0
2018-Feb-14 14:30N 67°17' E 014°22'0 0.0
2018-Feb-14 14:00N 67°17' E 014°22'0 0.0
2018-Feb-14 13:30N 67°17' E 014°22'0 0.0
2018-Feb-14 13:00N 67°17' E 014°22'0 0.0
2018-Feb-14 12:30N 67°17' E 014°22'0 0.0
2018-Feb-14 12:00N 67°17' E 014°22'0 0.0
2018-Feb-14 11:30N 67°17' E 014°22'0 0.0
2018-Feb-14 11:00N 67°17' E 014°22'0 0.0
2018-Feb-14 10:30N 67°17' E 014°22'0 0.0
2018-Feb-14 10:00N 67°17' E 014°22'0 0.0
2018-Feb-14 09:30N 67°17' E 014°22'0 0.0
2018-Feb-14 09:00N 67°17' E 014°22'0 0.0
2018-Feb-14 08:30N 67°17' E 014°22'0 0.0
2018-Feb-14 08:00N 67°17' E 014°22'0 0.0
2018-Feb-14 07:30N 67°17' E 014°22'0 0.0
2018-Feb-14 07:00N 67°17' E 014°22'0 0.0
2018-Feb-14 06:30N 67°17' E 014°22'0 0.0
2018-Feb-14 06:00N 67°17' E 014°22'0 0.0
2018-Feb-14 05:30N 67°17' E 014°22'0 0.0
2018-Feb-14 05:00N 67°17' E 014°22'0 0.0
2018-Feb-14 04:30N 67°17' E 014°22'0 0.0
2018-Feb-14 04:00N 67°17' E 014°22'0 0.0
2018-Feb-14 03:30N 67°17' E 014°22'0 0.0
2018-Feb-14 03:00N 67°17' E 014°22'0 0.0
2018-Feb-14 02:30N 67°17' E 014°22'0 0.0
2018-Feb-14 02:00N 67°17' E 014°22'0 0.0
2018-Feb-14 01:30N 67°17' E 014°22'0 0.0
2018-Feb-14 01:00N 67°17' E 014°22'0 0.0
2018-Feb-14 00:30N 67°17' E 014°22'0 0.0
2018-Feb-14 00:00N 67°17' E 014°22'0 0.0
2018-Feb-13 23:30N 67°17' E 014°22'0 0.0
2018-Feb-13 23:00N 67°17' E 014°22'0 0.0
2018-Feb-13 22:30N 67°17' E 014°22'0 0.0
2018-Feb-13 22:00N 67°17' E 014°22'0 0.0
2018-Feb-13 21:30N 67°17' E 014°22'0 0.0
2018-Feb-13 21:00N 67°17' E 014°22'0 0.0
2018-Feb-13 20:30N 67°17' E 014°22'0 0.0
2018-Feb-13 20:00N 67°17' E 014°22'0 0.0
2018-Feb-13 19:30N 67°17' E 014°22'0 0.0
2018-Feb-13 19:00N 67°17' E 014°22'0 0.0
2018-Feb-13 18:30N 67°17' E 014°22'0 0.0
2018-Feb-13 18:00N 67°17' E 014°22'0 0.0
2018-Feb-13 17:30N 67°17' E 014°22'0 0.0
2018-Feb-13 17:00N 67°17' E 014°22'0 0.0
2018-Feb-13 16:30N 67°17' E 014°22'0 0.0
2018-Feb-13 16:00N 67°17' E 014°22'0 0.0
2018-Feb-13 15:30N 67°17' E 014°22'0 0.0
2018-Feb-13 15:00N 67°17' E 014°22'0 0.0
2018-Feb-13 14:30N 67°17' E 014°22'0 0.0
2018-Feb-13 14:00N 67°17' E 014°22'0 0.0
2018-Feb-13 13:30N 67°17' E 014°22'0 0.0
2018-Feb-13 13:00N 67°17' E 014°22'0 0.0
2018-Feb-13 12:30N 67°17' E 014°22'0 0.0
2018-Feb-13 12:00N 67°17' E 014°22'0 0.0
2018-Feb-13 11:30N 67°17' E 014°22'0 0.0
2018-Feb-13 11:00N 67°17' E 014°22'0 0.0
2018-Feb-13 10:30N 67°17' E 014°22'0 0.0
2018-Feb-13 10:00N 67°17' E 014°22'0 0.0
2018-Feb-13 09:30N 67°17' E 014°22'0 0.0
2018-Feb-13 09:00N 67°17' E 014°22'0 0.0
2018-Feb-13 08:30N 67°17' E 014°22'0 0.0
2018-Feb-13 08:00N 67°17' E 014°22'0 0.0
2018-Feb-13 07:30N 67°17' E 014°22'0 0.0
2018-Feb-13 07:00N 67°17' E 014°22'0 0.0
2018-Feb-13 06:30N 67°17' E 014°22'0 0.0
2018-Feb-13 06:00N 67°17' E 014°22'0 0.0
2018-Feb-13 05:30N 67°17' E 014°22'0 0.0
2018-Feb-13 05:00N 67°17' E 014°22'0 0.0
2018-Feb-13 04:30N 67°17' E 014°22'0 0.0
2018-Feb-13 04:00N 67°17' E 014°22'0 0.0
2018-Feb-13 03:30N 67°17' E 014°22'0 0.0
2018-Feb-13 03:00N 67°17' E 014°22'0 0.0
2018-Feb-13 02:30N 67°17' E 014°22'0 0.0
2018-Feb-13 02:00N 67°17' E 014°22'0 0.0
2018-Feb-13 01:30N 67°17' E 014°22'0 0.0
2018-Feb-13 01:00N 67°17' E 014°22'0 0.0
2018-Feb-13 00:30N 67°17' E 014°22'0 0.0
2018-Feb-13 00:00N 67°17' E 014°22'0 0.0
2018-Feb-12 23:30N 67°17' E 014°22'0 0.0
2018-Feb-12 23:00N 67°17' E 014°22'0 0.0
2018-Feb-12 22:30N 67°17' E 014°22'0 0.0
2018-Feb-12 22:00N 67°17' E 014°22'0 0.0
2018-Feb-12 21:30N 67°17' E 014°22'0 0.0
2018-Feb-12 21:00N 67°17' E 014°22'0 0.0
2018-Feb-12 20:30N 67°17' E 014°22'0 0.0
2018-Feb-12 20:00N 67°17' E 014°22'0 0.0
2018-Feb-12 19:30N 67°17' E 014°22'0 0.0
2018-Feb-12 19:00N 67°17' E 014°22'0 0.0
2018-Feb-12 18:30N 67°17' E 014°22'0 0.0
2018-Feb-12 18:00N 67°17' E 014°22'0 0.0
2018-Feb-12 17:30N 67°17' E 014°22'0 0.0
2018-Feb-12 17:00N 67°17' E 014°22'0 0.0
2018-Feb-12 16:30N 67°17' E 014°22'0 0.0
2018-Feb-12 16:00N 67°17' E 014°22'0 0.0
2018-Feb-12 15:18N 67°17' E 014°22'0 0.0
2018-Feb-12 15:00N 67°17' E 014°22'0 0.0
2018-Feb-12 14:30N 67°17' E 014°22'0 0.0
2018-Feb-12 14:00N 67°17' E 014°22'0 0.0
2018-Feb-12 13:30N 67°17' E 014°22'0 0.0
2018-Feb-12 13:00N 67°17' E 014°22'0 0.0
2018-Feb-12 12:30N 67°17' E 014°22'0 0.0
2018-Feb-12 12:00N 67°17' E 014°22'0 0.0
2018-Feb-12 11:30N 67°17' E 014°22'0 0.0
2018-Feb-12 11:00N 67°17' E 014°22'0 0.5
2018-Feb-12 10:31N 67°17' E 014°22'1325.7
2018-Feb-12 10:01N 67°08' E 013°58'1326.7
2018-Feb-12 09:30N 66°59' E 013°34'2213.6
2018-Feb-12 07:51N 66°39' E 013°06'511.5
2018-Feb-12 07:27N 66°35' E 012°59'816.9
2018-Feb-12 06:57N 66°27' E 012°51'1621.5
2018-Feb-12 06:13N 66°12' E 013°00'824.8
2018-Feb-12 05:53N 66°07' E 012°46'0 0.0
2018-Feb-11 19:49N 66°06' E 012°45'822.2
2018-Feb-11 19:27N 66°12' E 013°00'0 0.1
2018-Feb-11 16:31N 66°12' E 013°00'824.6
2018-Feb-11 16:11N 66°20' E 012°53'419.4
2018-Feb-11 15:59N 66°24' E 012°49'816.8
2018-Feb-11 15:30N 66°31' E 013°00'913.5
2018-Feb-11 14:51N 66°39' E 013°03'614.7
2018-Feb-11 14:28N 66°43' E 013°14'1312.4
2018-Feb-11 13:24N 66°54' E 013°31'514.0
2018-Feb-11 13:00N 66°59' E 013°36'1224.5
2018-Feb-11 12:30N 67°08' E 013°58'1326.1
2018-Feb-11 12:00N 67°17' E 014°22'0 0.2
2018-Feb-11 11:30N 67°17' E 014°22'0 0.0
2018-Feb-11 11:01N 67°17' E 014°22'0 0.0
2018-Feb-11 10:30N 67°17' E 014°22'  

Dump ship's entire track history